Time;durP1;ratioP1;P1;durP2;ratioP2;P2;SDS_P1;SDS_P2;PMS_P1;PMS_P2;Temp;Humidity;BMP_temperature;BMP_pressure;BME280_temperature;BME280_humidity;BME280_pressure;Samples;Min_cycle;Max_cycle;Signal;HPM_P1;HPM_P2
2022/05/11 00:01:37;;;;;;;7.20;3.13;;;;;;;;;;5028447;28;20194;-68
2022/05/11 00:04:05;;;;;;;9.60;2.50;;;;;;;;;;5028539;28;20499;-67
2022/05/11 00:06:32;;;;;;;8.00;2.47;;;;;;;;;;5028567;28;20535;-67
2022/05/11 00:08:59;;;;;;;5.27;2.40;;;;;;;;;;5024349;28;20196;-68
2022/05/11 00:11:26;;;;;;;5.60;2.80;;;;;;;;;;5019757;28;20195;-68
2022/05/11 00:13:53;;;;;;;6.30;2.67;;;;;;;;;;5027488;28;20191;-68
2022/05/11 00:16:20;;;;;;;6.23;2.90;;;;;;;;;;5029191;28;20203;-67
2022/05/11 00:19:04;;;;;;;6.83;2.60;;;;;;;;;;5027666;28;20187;-68
2022/05/11 00:21:31;;;;;;;5.83;2.30;;;;;;;;;;5011922;28;20187;-67
2022/05/11 00:23:57;;;;;;;7.23;2.50;;;;;;;;;;5028243;28;20238;-68
2022/05/11 00:26:25;;;;;;;8.07;2.70;;;;;;;;;;5004623;28;20310;-67
2022/05/11 00:28:51;;;;;;;5.77;2.80;;;;;;;;;;5027787;28;20187;-68
2022/05/11 00:31:36;;;;;;;4.53;2.57;;;;;;;;;;5028020;28;20175;-68
2022/05/11 00:34:03;;;;;;;5.73;2.70;;;;;;;;;;5028150;28;20203;-68
2022/05/11 00:36:30;;;;;;;4.00;2.80;;;;;;;;;;5027814;28;20180;-68
2022/05/11 00:38:56;;;;;;;6.40;2.57;;;;;;;;;;5030119;28;20197;-68
2022/05/11 00:41:23;;;;;;;5.17;2.67;;;;;;;;;;5014248;28;20567;-67
2022/05/11 00:43:57;;;;;;;6.67;3.07;;;;;;;;;;5026699;28;20278;-68
2022/05/11 00:46:39;;;;;;;4.63;2.70;;;;;;;;;;4998280;28;20984;-68
2022/05/11 00:51:53;;;;;;;8.77;3.00;;;;;;;;;;5012723;28;20199;-68
2022/05/11 00:54:19;;;;;;;5.30;2.53;;;;;;;;;;5026413;28;20215;-68
2022/05/11 00:56:47;;;;;;;6.00;2.70;;;;;;;;;;5024445;28;20246;-68
2022/05/11 00:59:21;;;;;;;4.37;2.47;;;;;;;;;;4993849;28;20179;-68
2022/05/11 01:01:47;;;;;;;5.93;2.80;;;;;;;;;;5026939;28;20677;-68
2022/05/11 01:04:16;;;;;;;6.67;3.00;;;;;;;;;;5027794;28;20266;-68
2022/05/11 01:06:43;;;;;;;7.80;2.97;;;;;;;;;;5027123;28;20184;-67
2022/05/11 01:09:10;;;;;;;4.83;2.50;;;;;;;;;;5027449;28;20187;-67
2022/05/11 01:11:40;;;;;;;7.50;2.90;;;;;;;;;;5025160;28;20187;-68
2022/05/11 01:14:08;;;;;;;6.00;2.80;;;;;;;;;;5023307;28;20195;-68
2022/05/11 01:16:35;;;;;;;8.47;3.30;;;;;;;;;;5026807;28;20183;-68
2022/05/11 01:19:02;;;;;;;6.00;3.00;;;;;;;;;;5030923;28;20271;-67
2022/05/11 01:21:29;;;;;;;5.40;2.90;;;;;;;;;;4984752;28;20596;-67
2022/05/11 01:24:00;;;;;;;5.80;2.77;;;;;;;;;;5006976;28;20200;-68
2022/05/11 01:26:27;;;;;;;6.53;3.03;;;;;;;;;;5024463;28;20270;-68
2022/05/11 01:28:54;;;;;;;6.10;3.20;;;;;;;;;;5006254;28;20192;-68
2022/05/11 01:31:21;;;;;;;8.17;3.47;;;;;;;;;;5027796;28;20199;-67
2022/05/11 01:33:49;;;;;;;10.63;3.80;;;;;;;;;;5026741;28;20192;-67
2022/05/11 01:36:26;;;;;;;4.67;3.37;;;;;;;;;;5027555;28;20227;-67
2022/05/11 01:38:55;;;;;;;4.70;3.20;;;;;;;;;;5028464;28;20191;-68
2022/05/11 01:41:23;;;;;;;8.57;3.53;;;;;;;;;;4987856;28;20555;-67
2022/05/11 01:43:51;;;;;;;7.67;3.77;;;;;;;;;;5014921;28;20227;-68
2022/05/11 01:46:17;;;;;;;6.47;3.37;;;;;;;;;;5027144;28;20187;-68
2022/05/11 01:48:45;;;;;;;8.17;3.57;;;;;;;;;;5026785;28;21492;-68
2022/05/11 01:51:12;;;;;;;8.03;3.20;;;;;;;;;;5027443;28;20225;-67
2022/05/11 01:53:39;;;;;;;5.93;3.53;;;;;;;;;;5027588;28;20230;-67
2022/05/11 01:56:06;;;;;;;9.23;3.67;;;;;;;;;;5025551;28;20219;-68
2022/05/11 01:58:33;;;;;;;7.47;3.40;;;;;;;;;;5026949;28;20266;-68
2022/05/11 02:01:01;;;;;;;12.93;3.70;;;;;;;;;;5026803;28;20198;-67
2022/05/11 02:03:28;;;;;;;6.23;3.47;;;;;;;;;;5005826;28;20200;-68
2022/05/11 02:08:40;;;;;;;10.67;3.47;;;;;;;;;;5030927;28;20219;-67
2022/05/11 02:11:07;;;;;;;5.63;3.23;;;;;;;;;;5029702;28;20195;-68
2022/05/11 02:13:33;;;;;;;7.40;3.53;;;;;;;;;;5031582;28;20192;-67
2022/05/11 02:16:00;;;;;;;6.83;3.60;;;;;;;;;;5029375;28;20288;-67
2022/05/11 02:18:27;;;;;;;7.10;3.37;;;;;;;;;;5007680;28;20221;-68
2022/05/11 02:20:54;;;;;;;7.70;3.60;;;;;;;;;;5010604;28;20698;-68
2022/05/11 02:23:21;;;;;;;7.63;3.60;;;;;;;;;;5030598;28;20598;-68
2022/05/11 02:25:48;;;;;;;6.87;3.43;;;;;;;;;;5029880;28;20190;-68
2022/05/11 02:28:15;;;;;;;6.77;3.37;;;;;;;;;;5029734;28;20274;-68
2022/05/11 02:30:43;;;;;;;6.43;3.23;;;;;;;;;;5028250;28;20631;-67
2022/05/11 02:33:10;;;;;;;8.27;3.50;;;;;;;;;;5026897;28;20677;-68
2022/05/11 02:35:37;;;;;;;7.67;3.30;;;;;;;;;;5029701;28;20199;-68
2022/05/11 02:38:05;;;;;;;7.33;3.80;;;;;;;;;;5029894;28;20226;-68
2022/05/11 02:40:34;;;;;;;7.97;3.53;;;;;;;;;;5039341;28;20654;-69
2022/05/11 02:43:03;;;;;;;6.47;3.27;;;;;;;;;;5029990;28;20199;-67
2022/05/11 02:45:31;;;;;;;8.83;3.17;;;;;;;;;;5028747;28;20257;-69
2022/05/11 02:47:58;;;;;;;8.73;3.80;;;;;;;;;;5011067;28;20201;-68
2022/05/11 02:50:26;;;;;;;6.73;3.63;;;;;;;;;;5027125;28;20198;-68
2022/05/11 02:52:52;;;;;;;6.23;3.30;;;;;;;;;;5028673;28;20191;-67
2022/05/11 02:55:19;;;;;;;6.40;3.60;;;;;;;;;;5027351;28;20951;-68
2022/05/11 02:57:46;;;;;;;9.30;3.90;;;;;;;;;;5028200;28;20649;-68
2022/05/11 03:00:13;;;;;;;7.47;3.47;;;;;;;;;;5029603;28;20195;-68
2022/05/11 03:03:01;;;;;;;7.33;3.53;;;;;;;;;;5029847;28;20183;-68
2022/05/11 03:05:27;;;;;;;8.40;4.03;;;;;;;;;;5028358;28;20234;-69
2022/05/11 03:07:55;;;;;;;7.63;3.43;;;;;;;;;;5024841;28;20191;-68
2022/05/11 03:10:22;;;;;;;8.70;3.90;;;;;;;;;;5027793;28;20235;-68
2022/05/11 03:12:49;;;;;;;7.37;3.30;;;;;;;;;;5029159;28;20196;-68
2022/05/11 03:15:16;;;;;;;8.07;4.03;;;;;;;;;;5029662;28;20298;-68
2022/05/11 03:17:43;;;;;;;7.37;3.80;;;;;;;;;;5011319;28;20183;-68
2022/05/11 03:20:10;;;;;;;7.30;3.50;;;;;;;;;;5029155;28;20191;-68
2022/05/11 03:22:37;;;;;;;8.10;3.70;;;;;;;;;;4983708;28;20276;-68
2022/05/11 03:25:04;;;;;;;9.87;4.23;;;;;;;;;;5019441;28;20217;-68
2022/05/11 03:27:31;;;;;;;7.17;3.77;;;;;;;;;;5029715;28;20183;-68
2022/05/11 03:29:58;;;;;;;10.77;4.27;;;;;;;;;;5029519;28;20187;-67
2022/05/11 03:35:10;;;;;;;9.10;3.80;;;;;;;;;;5029231;28;20208;-67
2022/05/11 03:37:37;;;;;;;7.37;4.13;;;;;;;;;;5024940;28;20608;-67
2022/05/11 03:40:05;;;;;;;7.73;3.90;;;;;;;;;;5019652;28;20195;-67
2022/05/11 03:42:32;;;;;;;8.40;3.90;;;;;;;;;;5029862;28;20191;-67
2022/05/11 03:45:08;;;;;;;8.50;4.07;;;;;;;;;;5011419;28;20726;-67
2022/05/11 03:47:52;;;;;;;7.20;3.37;;;;;;;;;;5028806;28;20539;-68
2022/05/11 03:50:20;;;;;;;8.80;4.23;;;;;;;;;;5010962;28;20258;-67
2022/05/11 03:52:47;;;;;;;10.43;3.47;;;;;;;;;;5017760;28;20202;-68
2022/05/11 03:55:14;;;;;;;5.60;3.50;;;;;;;;;;5010774;28;20204;-67
2022/05/11 03:57:40;;;;;;;7.30;4.07;;;;;;;;;;4999549;28;20273;-68
2022/05/11 04:00:09;;;;;;;5.77;3.77;;;;;;;;;;5021750;28;20555;-69
2022/05/11 04:02:40;;;;;;;6.10;3.40;;;;;;;;;;5021658;28;20200;-68
2022/05/11 04:05:13;;;;;;;5.40;3.90;;;;;;;;;;5020741;28;20191;-69
2022/05/11 04:07:40;;;;;;;6.93;3.90;;;;;;;;;;5020316;28;20862;-68
2022/05/11 04:10:07;;;;;;;7.63;4.03;;;;;;;;;;5022401;28;20250;-68
2022/05/11 04:12:34;;;;;;;10.20;3.83;;;;;;;;;;5015974;28;20659;-68
2022/05/11 04:15:01;;;;;;;13.47;4.83;;;;;;;;;;5027463;28;20226;-67
2022/05/11 04:17:28;;;;;;;10.70;4.83;;;;;;;;;;5023668;28;20202;-68
2022/05/11 04:19:55;;;;;;;7.87;4.30;;;;;;;;;;5025344;28;20191;-68
2022/05/11 04:22:22;;;;;;;9.97;4.07;;;;;;;;;;5007867;28;20195;-67
2022/05/11 04:24:49;;;;;;;7.87;3.73;;;;;;;;;;5017419;28;20194;-68
2022/05/11 04:27:15;;;;;;;9.40;3.63;;;;;;;;;;5014643;28;20215;-68
2022/05/11 04:29:42;;;;;;;7.90;3.70;;;;;;;;;;5013291;28;20274;-67
2022/05/11 04:32:10;;;;;;;11.63;4.30;;;;;;;;;;5018436;28;20195;-68
2022/05/11 04:34:38;;;;;;;9.30;4.37;;;;;;;;;;5020840;28;20211;-68
2022/05/11 04:37:05;;;;;;;10.27;4.10;;;;;;;;;;5026481;28;20240;-67
2022/05/11 04:39:31;;;;;;;8.67;4.13;;;;;;;;;;5037534;28;20574;-67
2022/05/11 04:41:59;;;;;;;8.27;4.10;;;;;;;;;;5031411;28;20198;-69
2022/05/11 04:44:26;;;;;;;9.20;4.10;;;;;;;;;;5009085;28;20206;-68
2022/05/11 04:46:58;;;;;;;13.23;5.23;;;;;;;;;;5027727;28;20195;-69
2022/05/11 04:49:25;;;;;;;13.07;5.00;;;;;;;;;;4992664;28;20202;-69
2022/05/11 04:52:07;;;;;;;10.90;5.27;;;;;;;;;;5028267;28;20188;-69
2022/05/11 04:54:35;;;;;;;10.03;5.03;;;;;;;;;;5025234;28;20183;-69
2022/05/11 04:57:02;;;;;;;8.67;4.73;;;;;;;;;;5026959;28;20222;-69
2022/05/11 04:59:28;;;;;;;9.10;5.07;;;;;;;;;;5028736;28;20222;-69
2022/05/11 05:01:57;;;;;;;11.67;4.40;;;;;;;;;;4998379;28;20203;-69
2022/05/11 05:04:24;;;;;;;12.17;4.43;;;;;;;;;;5026816;28;20191;-69
2022/05/11 05:06:51;;;;;;;9.00;4.60;;;;;;;;;;5026320;28;20184;-67
2022/05/11 05:09:17;;;;;;;15.60;5.03;;;;;;;;;;5046976;28;20218;-67
2022/05/11 05:11:44;;;;;;;11.23;4.87;;;;;;;;;;5012479;28;20190;-67
2022/05/11 05:14:12;;;;;;;9.93;4.53;;;;;;;;;;5027121;28;20631;-67
2022/05/11 05:16:40;;;;;;;23.63;4.77;;;;;;;;;;5027287;28;20215;-67
2022/05/11 05:19:07;;;;;;;9.17;4.50;;;;;;;;;;5028281;28;20179;-67
2022/05/11 05:21:34;;;;;;;12.40;4.67;;;;;;;;;;5024323;28;20820;-66
2022/05/11 05:24:01;;;;;;;15.27;5.03;;;;;;;;;;5035404;28;20340;-68
2022/05/11 05:26:28;;;;;;;9.20;5.20;;;;;;;;;;5012899;28;20226;-70
2022/05/11 05:31:41;;;;;;;13.90;5.80;;;;;;;;;;5038699;28;20275;-68
2022/05/11 05:34:08;;;;;;;13.30;5.50;;;;;;;;;;5034862;28;20561;-68
2022/05/11 05:36:36;;;;;;;12.80;6.30;;;;;;;;;;5026025;28;20218;-68
2022/05/11 05:39:03;;;;;;;13.13;6.30;;;;;;;;;;5025684;28;20224;-68
2022/05/11 05:41:30;;;;;;;14.40;5.70;;;;;;;;;;5047744;28;20658;-67
2022/05/11 05:43:57;;;;;;;13.03;5.67;;;;;;;;;;5048275;28;20183;-67
2022/05/11 05:46:24;;;;;;;12.83;5.87;;;;;;;;;;5047903;28;20175;-67
2022/05/11 05:48:51;;;;;;;25.87;6.30;;;;;;;;;;5047599;28;20198;-68
2022/05/11 05:51:18;;;;;;;16.23;5.13;;;;;;;;;;5006003;28;20662;-68
2022/05/11 05:53:45;;;;;;;15.03;7.00;;;;;;;;;;5013473;28;21003;-67
2022/05/11 05:56:13;;;;;;;12.33;5.03;;;;;;;;;;5026304;28;20629;-68
2022/05/11 05:58:40;;;;;;;7.77;5.10;;;;;;;;;;5029057;28;20187;-69
2022/05/11 06:01:07;;;;;;;10.37;5.00;;;;;;;;;;5011313;28;20207;-69
2022/05/11 06:03:34;;;;;;;10.33;4.80;;;;;;;;;;5026731;28;20282;-69
2022/05/11 06:06:04;;;;;;;9.07;5.00;;;;;;;;;;5028840;28;20225;-69
2022/05/11 06:08:31;;;;;;;14.27;5.33;;;;;;;;;;5031098;28;20532;-68
2022/05/11 06:10:58;;;;;;;12.17;4.63;;;;;;;;;;5028283;28;20776;-68
2022/05/11 06:13:26;;;;;;;7.37;4.20;;;;;;;;;;5032538;28;20198;-68
2022/05/11 06:15:53;;;;;;;11.20;4.77;;;;;;;;;;5031326;28;20235;-68
2022/05/11 06:18:20;;;;;;;12.10;5.07;;;;;;;;;;5029143;28;20191;-68
2022/05/11 06:20:51;;;;;;;17.40;5.33;;;;;;;;;;5028948;28;20887;-69
2022/05/11 06:23:19;;;;;;;13.37;5.53;;;;;;;;;;5028566;28;20653;-68
2022/05/11 06:25:45;;;;;;;7.00;4.90;;;;;;;;;;5029522;28;20196;-69
2022/05/11 06:28:12;;;;;;;7.60;4.70;;;;;;;;;;5030050;28;20210;-68
2022/05/11 06:31:00;;;;;;;7.43;5.30;;;;;;;;;;5029320;28;20266;-68
2022/05/11 06:33:27;;;;;;;10.27;5.33;;;;;;;;;;5021109;28;20196;-69
2022/05/11 06:35:54;;;;;;;7.43;4.90;;;;;;;;;;5034653;28;20959;-67
2022/05/11 06:38:21;;;;;;;7.13;4.87;;;;;;;;;;5021799;28;20239;-68
2022/05/11 06:40:48;;;;;;;9.00;5.20;;;;;;;;;;5021768;28;20659;-70
2022/05/11 06:43:15;;;;;;;11.60;5.10;;;;;;;;;;5025397;28;20202;-69
2022/05/11 06:45:42;;;;;;;8.13;4.50;;;;;;;;;;5020285;28;20870;-68
2022/05/11 06:48:09;;;;;;;12.77;5.00;;;;;;;;;;5019215;28;20187;-68
2022/05/11 06:50:35;;;;;;;7.10;5.10;;;;;;;;;;5020626;28;20219;-68
2022/05/11 06:53:07;;;;;;;7.13;4.80;;;;;;;;;;5023472;28;20203;-68
2022/05/11 07:01:05;;;;;;;9.03;4.23;;;;;;;;;;5022736;28;20562;-69
2022/05/11 07:03:32;;;;;;;6.87;4.50;;;;;;;;;;5010964;28;20191;-68
2022/05/11 07:05:59;;;;;;;6.37;4.30;;;;;;;;;;5023139;28;20203;-68
2022/05/11 07:08:32;;;;;;;6.40;4.30;;;;;;;;;;5021799;28;20191;-69
2022/05/11 07:13:46;;;;;;;7.57;4.60;;;;;;;;;;5022228;28;20302;-69
2022/05/11 07:16:13;;;;;;;7.80;4.77;;;;;;;;;;5022265;28;20266;-70
2022/05/11 07:18:40;;;;;;;5.90;4.97;;;;;;;;;;5020764;28;20199;-70
2022/05/11 07:21:08;;;;;;;6.33;4.30;;;;;;;;;;5022941;28;20268;-70
2022/05/11 07:23:35;;;;;;;8.10;4.33;;;;;;;;;;5024334;28;20266;-71
2022/05/11 07:26:02;;;;;;;5.97;4.80;;;;;;;;;;5032840;28;20266;-69
2022/05/11 07:28:29;;;;;;;7.03;4.90;;;;;;;;;;5005646;28;20870;-69
2022/05/11 07:30:57;;;;;;;7.83;5.03;;;;;;;;;;5008438;28;20219;-70
2022/05/11 07:33:24;;;;;;;6.13;5.20;;;;;;;;;;5017239;28;20195;-69
2022/05/11 07:35:52;;;;;;;9.03;5.20;;;;;;;;;;5021263;28;20655;-70
2022/05/11 07:38:19;;;;;;;6.97;4.67;;;;;;;;;;5034037;28;20223;-68
2022/05/11 07:40:46;;;;;;;10.10;4.83;;;;;;;;;;5037665;28;20195;-69
2022/05/11 07:43:13;;;;;;;7.73;4.90;;;;;;;;;;5013080;28;20199;-69
2022/05/11 07:45:40;;;;;;;8.13;4.73;;;;;;;;;;5039317;28;20313;-69
2022/05/11 07:48:07;;;;;;;5.50;4.70;;;;;;;;;;5039627;28;20205;-68
2022/05/11 07:50:34;;;;;;;7.27;4.70;;;;;;;;;;5037555;28;20195;-70
2022/05/11 07:53:01;;;;;;;8.60;4.73;;;;;;;;;;5038458;28;20188;-69
2022/05/11 07:55:28;;;;;;;6.23;4.87;;;;;;;;;;5018001;28;20713;-68
2022/05/11 08:00:41;;;;;;;6.50;4.40;;;;;;;;;;5040576;28;21077;-68
2022/05/11 08:03:11;;;;;;;7.03;4.70;;;;;;;;;;5018216;28;20313;-67
2022/05/11 08:05:38;;;;;;;5.20;4.23;;;;;;;;;;5040812;28;20283;-69
2022/05/11 08:08:06;;;;;;;6.03;3.77;;;;;;;;;;4996245;28;20198;-68
2022/05/11 08:10:51;;;;;;;5.67;4.33;;;;;;;;;;5041524;28;20850;-67
2022/05/11 08:13:18;;;;;;;5.30;4.50;;;;;;;;;;5038385;28;21045;-68
2022/05/11 08:15:47;;;;;;;4.63;4.10;;;;;;;;;;5041750;28;20194;-68
2022/05/11 08:18:15;;;;;;;6.37;4.37;;;;;;;;;;5014424;28;20197;-68
2022/05/11 08:20:43;;;;;;;7.37;4.43;;;;;;;;;;5038122;28;20179;-68
2022/05/11 08:23:10;;;;;;;6.27;4.13;;;;;;;;;;5036880;28;20306;-68
2022/05/11 08:25:38;;;;;;;4.93;4.30;;;;;;;;;;5039306;28;20282;-67
2022/05/11 08:28:10;;;;;;;7.90;4.87;;;;;;;;;;5038683;28;20561;-67
2022/05/11 08:33:22;;;;;;;7.63;4.57;;;;;;;;;;5037365;28;20280;-68
2022/05/11 08:36:19;;;;;;;7.10;4.50;;;;;;;;;;5039460;28;20280;-68
2022/05/11 08:38:48;;;;;;;6.53;4.47;;;;;;;;;;5037171;28;20292;-67
2022/05/11 08:41:36;;;;;;;6.87;5.10;;;;;;;;;;5036925;28;20187;-68
2022/05/11 08:44:05;;;;;;;4.93;3.93;;;;;;;;;;5014642;28;20595;-68
2022/05/11 08:46:38;;;;;;;5.17;4.30;;;;;;;;;;5010834;28;20191;-67
2022/05/11 08:49:06;;;;;;;4.87;4.13;;;;;;;;;;5038368;28;20190;-68
2022/05/11 08:51:37;;;;;;;5.83;4.37;;;;;;;;;;5010595;28;20199;-70
2022/05/11 08:54:10;;;;;;;6.43;4.50;;;;;;;;;;4996014;28;20198;-69
2022/05/11 08:56:37;;;;;;;5.93;4.23;;;;;;;;;;5039525;28;20214;-68
2022/05/11 08:59:13;;;;;;;8.37;4.00;;;;;;;;;;5010582;28;20644;-68
2022/05/11 09:02:00;;;;;;;4.83;4.17;;;;;;;;;;5011854;28;20277;-69
2022/05/11 09:04:37;;;;;;;6.20;4.30;;;;;;;;;;5036902;28;20206;-68
2022/05/11 09:07:05;;;;;;;5.47;4.00;;;;;;;;;;5040103;28;20186;-69
2022/05/11 09:09:32;;;;;;;6.00;4.30;;;;;;;;;;5005413;28;21498;-66
2022/05/11 09:11:59;;;;;;;5.20;4.27;;;;;;;;;;5038100;28;20295;-66
2022/05/11 09:14:31;;;;;;;5.90;4.43;;;;;;;;;;5038313;28;20203;-68
2022/05/11 09:16:58;;;;;;;6.83;4.77;;;;;;;;;;5021731;28;20276;-69
2022/05/11 09:19:30;;;;;;;5.83;4.03;;;;;;;;;;5017281;28;20555;-68
2022/05/11 09:21:57;;;;;;;6.70;4.73;;;;;;;;;;5040829;28;20190;-70
2022/05/11 09:24:46;;;;;;;5.97;4.60;;;;;;;;;;5036879;28;20171;-68
2022/05/11 09:27:29;;;;;;;6.83;4.67;;;;;;;;;;5012503;28;20716;-68
2022/05/11 09:29:59;;;;;;;6.93;4.40;;;;;;;;;;5033202;28;20204;-69
2022/05/11 09:32:34;;;;;;;5.47;4.50;;;;;;;;;;5036440;28;20968;-70
2022/05/11 09:35:36;;;;;;;5.07;4.57;;;;;;;;;;5039477;28;20557;-68
2022/05/11 09:38:22;;;;;;;8.20;4.50;;;;;;;;;;4996783;28;20229;-67
2022/05/11 09:40:53;;;;;;;5.87;3.80;;;;;;;;;;5015759;28;20190;-69
2022/05/11 09:43:29;;;;;;;5.53;4.00;;;;;;;;;;5038313;28;20182;-67
2022/05/11 09:45:56;;;;;;;8.27;4.07;;;;;;;;;;5034933;28;20203;-67
2022/05/11 09:48:24;;;;;;;6.17;4.27;;;;;;;;;;4991510;28;20199;-68
2022/05/11 09:50:54;;;;;;;6.07;4.03;;;;;;;;;;5039675;28;20233;-69
2022/05/11 09:53:24;;;;;;;6.87;3.97;;;;;;;;;;5036293;28;20199;-68
2022/05/11 09:55:51;;;;;;;6.17;3.97;;;;;;;;;;5038641;28;20194;-68
2022/05/11 09:58:29;;;;;;;6.70;3.63;;;;;;;;;;5037584;28;20222;-68
2022/05/11 10:01:16;;;;;;;6.17;3.90;;;;;;;;;;5040603;28;20229;-69
2022/05/11 10:03:49;;;;;;;6.00;3.73;;;;;;;;;;5038836;28;20198;-68
2022/05/11 10:06:43;;;;;;;7.33;3.70;;;;;;;;;;5037971;28;20265;-69
2022/05/11 10:09:09;;;;;;;6.27;3.93;;;;;;;;;;5006550;28;21854;-69
2022/05/11 10:11:39;;;;;;;5.00;3.87;;;;;;;;;;5003963;28;20895;-69
2022/05/11 10:23:02;;;;;;;5.43;4.00;;;;;;;;;;5021945;28;20190;-68
2022/05/11 10:25:35;;;;;;;6.13;3.90;;;;;;;;;;5006704;28;20531;-68
2022/05/11 10:28:11;;;;;;;7.07;4.00;;;;;;;;;;5019933;28;20201;-70
2022/05/11 10:30:40;;;;;;;6.07;4.10;;;;;;;;;;5040707;28;20964;-69
2022/05/11 10:33:22;;;;;;;6.73;4.00;;;;;;;;;;5041577;28;20962;-71
2022/05/11 10:36:09;;;;;;;5.40;4.00;;;;;;;;;;5043375;28;20194;-70
2022/05/11 10:38:54;;;;;;;5.50;3.70;;;;;;;;;;5030764;28;20354;-69
2022/05/11 10:41:42;;;;;;;5.57;3.43;;;;;;;;;;5029510;28;20183;-70
2022/05/11 10:44:09;;;;;;;3.83;3.30;;;;;;;;;;5031497;28;20208;-69
2022/05/11 10:46:37;;;;;;;4.10;3.40;;;;;;;;;;5030112;28;20191;-69
2022/05/11 10:49:13;;;;;;;5.13;3.50;;;;;;;;;;5015841;28;20194;-70
2022/05/11 10:51:39;;;;;;;4.90;3.50;;;;;;;;;;5035424;28;20953;-69
2022/05/11 10:54:29;;;;;;;6.33;3.43;;;;;;;;;;5032056;28;20195;-69
2022/05/11 10:57:00;;;;;;;4.73;3.40;;;;;;;;;;5040927;28;20293;-69
2022/05/11 10:59:49;;;;;;;5.90;3.30;;;;;;;;;;5015639;28;21349;-68
2022/05/11 11:02:15;;;;;;;5.33;3.50;;;;;;;;;;5016839;28;20249;-70
2022/05/11 11:05:01;;;;;;;4.20;3.37;;;;;;;;;;5035282;28;20982;-70
2022/05/11 11:07:28;;;;;;;3.77;3.33;;;;;;;;;;5028525;28;20195;-69
2022/05/11 11:10:12;;;;;;;5.43;3.60;;;;;;;;;;5034193;28;20195;-70
2022/05/11 11:12:48;;;;;;;4.37;3.33;;;;;;;;;;5034611;28;20877;-70
2022/05/11 11:15:16;;;;;;;4.53;3.50;;;;;;;;;;5034508;28;20884;-67
2022/05/11 11:18:00;;;;;;;10.43;3.70;;;;;;;;;;5008039;28;20555;-67
2022/05/11 11:20:27;;;;;;;5.87;3.53;;;;;;;;;;5015014;28;20269;-69
2022/05/11 11:23:03;;;;;;;5.63;3.43;;;;;;;;;;5011378;28;20605;-68
2022/05/11 11:25:46;;;;;;;6.30;3.53;;;;;;;;;;5031042;28;20620;-68
2022/05/11 11:28:15;;;;;;;6.10;3.83;;;;;;;;;;5025670;28;20203;-68
2022/05/11 11:31:03;;;;;;;5.50;3.53;;;;;;;;;;5026439;28;20238;-70
2022/05/11 11:33:31;;;;;;;7.13;4.03;;;;;;;;;;5034796;28;20195;-69
2022/05/11 11:36:05;;;;;;;7.23;3.97;;;;;;;;;;5028858;28;20191;-69
2022/05/11 11:38:41;;;;;;;6.37;3.80;;;;;;;;;;5025370;28;20313;-70
2022/05/11 11:41:09;;;;;;;5.93;3.73;;;;;;;;;;5034976;28;20618;-69
2022/05/11 11:43:53;;;;;;;6.27;3.40;;;;;;;;;;5034837;28;20198;-68
2022/05/11 11:46:29;;;;;;;5.50;3.60;;;;;;;;;;5027405;28;20192;-68
2022/05/11 11:49:33;;;;;;;5.47;3.60;;;;;;;;;;5037791;28;20222;-68
2022/05/11 11:52:04;;;;;;;3.37;3.07;;;;;;;;;;5033825;28;20738;-69
2022/05/11 11:54:37;;;;;;;4.93;3.77;;;;;;;;;;5007904;28;20225;-68
2022/05/11 11:57:21;;;;;;;3.97;3.50;;;;;;;;;;5032130;28;20994;-67
2022/05/11 11:59:49;;;;;;;4.17;3.23;;;;;;;;;;5031628;28;20743;-67
2022/05/11 12:02:36;;;;;;;5.20;3.30;;;;;;;;;;5009913;28;20217;-68
2022/05/11 12:05:32;;;;;;;7.97;4.00;;;;;;;;;;5031236;28;20253;-68
2022/05/11 12:16:24;;;;;;;5.47;3.53;;;;;;;;;;5025414;28;20195;-68
2022/05/11 12:18:51;;;;;;;4.70;3.30;;;;;;;;;;5036188;28;20688;-69
2022/05/11 12:21:29;;;;;;;10.23;3.47;;;;;;;;;;5006675;28;20338;-68
2022/05/11 12:23:56;;;;;;;5.10;3.10;;;;;;;;;;5007981;28;20304;-67
2022/05/11 12:26:30;;;;;;;5.07;3.10;;;;;;;;;;4993358;28;20203;-69
2022/05/11 12:31:57;;;;;;;7.70;3.97;;;;;;;;;;5021079;28;20206;-69
2022/05/11 12:34:25;;;;;;;5.30;3.63;;;;;;;;;;5006223;28;20178;-69
2022/05/11 12:36:53;;;;;;;3.40;3.10;;;;;;;;;;5010058;28;20216;-68
2022/05/11 12:39:32;;;;;;;6.27;3.20;;;;;;;;;;5030722;28;20193;-72
2022/05/11 12:42:00;;;;;;;3.83;3.27;;;;;;;;;;5032602;28;20231;-68
2022/05/11 12:44:29;;;;;;;5.00;3.50;;;;;;;;;;5008930;28;20305;-67
2022/05/11 12:47:04;;;;;;;4.40;3.43;;;;;;;;;;5033634;28;20203;-67
2022/05/11 12:49:31;;;;;;;7.20;3.03;;;;;;;;;;5008030;28;20820;-68
2022/05/11 12:52:06;;;;;;;5.83;2.90;;;;;;;;;;5030750;28;20931;-68
2022/05/11 12:54:34;;;;;;;7.40;3.37;;;;;;;;;;5028091;28;20780;-67
2022/05/11 12:57:05;;;;;;;6.73;3.10;;;;;;;;;;5032330;28;20236;-67
2022/05/11 12:59:33;;;;;;;7.03;3.00;;;;;;;;;;5023873;28;20199;-68
2022/05/11 13:02:15;;;;;;;4.63;2.30;;;;;;;;;;5024835;28;20195;-67
2022/05/11 13:04:51;;;;;;;2.60;2.40;;;;;;;;;;5026546;28;20203;-67
2022/05/11 13:07:20;;;;;;;5.43;2.90;;;;;;;;;;5013912;28;20298;-68
2022/05/11 13:09:47;;;;;;;3.20;2.30;;;;;;;;;;5012614;28;20189;-69
2022/05/11 13:12:14;;;;;;;5.30;2.40;;;;;;;;;;5022777;28;20322;-68
2022/05/11 13:14:52;;;;;;;4.50;2.70;;;;;;;;;;5012879;28;20195;-68
2022/05/11 13:17:24;;;;;;;4.33;2.50;;;;;;;;;;5040619;28;20841;-68
2022/05/11 13:19:59;;;;;;;5.90;2.77;;;;;;;;;;5023501;28;20195;-68
2022/05/11 13:22:26;;;;;;;5.97;2.73;;;;;;;;;;5007420;28;20235;-68
2022/05/11 13:24:54;;;;;;;3.20;2.53;;;;;;;;;;5030541;28;20207;-68
2022/05/11 13:27:43;;;;;;;6.63;3.03;;;;;;;;;;5011235;28;20187;-69
2022/05/11 13:30:20;;;;;;;4.60;2.53;;;;;;;;;;5020939;28;20209;-67
2022/05/11 13:32:47;;;;;;;4.90;2.03;;;;;;;;;;5028446;28;20238;-68
2022/05/11 13:35:15;;;;;;;4.17;2.70;;;;;;;;;;5021462;28;20252;-67
2022/05/11 13:37:51;;;;;;;6.40;2.60;;;;;;;;;;5012781;28;20231;-68
2022/05/11 13:40:32;;;;;;;5.93;2.93;;;;;;;;;;5028928;28;20269;-66
2022/05/11 13:42:59;;;;;;;3.73;3.00;;;;;;;;;;5029126;28;20191;-68
2022/05/11 13:45:26;;;;;;;5.17;3.30;;;;;;;;;;5038960;28;21060;-70
2022/05/11 13:48:12;;;;;;;4.77;3.20;;;;;;;;;;5011307;28;21542;-68
2022/05/11 13:50:42;;;;;;;3.53;2.90;;;;;;;;;;5031725;28;21017;-68
2022/05/11 13:53:18;;;;;;;4.00;3.50;;;;;;;;;;5029694;28;20202;-68
2022/05/11 13:55:58;;;;;;;6.50;3.30;;;;;;;;;;5008616;28;20222;-70
2022/05/11 13:58:29;;;;;;;5.07;3.50;;;;;;;;;;5029090;28;20245;-69
2022/05/11 14:01:04;;;;;;;6.33;3.40;;;;;;;;;;5025871;28;20242;-67
2022/05/11 14:03:32;;;;;;;5.97;3.40;;;;;;;;;;5037143;28;20357;-68
2022/05/11 14:06:19;;;;;;;12.20;3.70;;;;;;;;;;5023822;28;20178;-69
2022/05/11 14:08:46;;;;;;;25.03;4.87;;;;;;;;;;5015100;28;20203;-67
2022/05/11 14:11:16;;;;;;;11.53;3.50;;;;;;;;;;5029528;28;20598;-70
2022/05/11 14:13:43;;;;;;;6.77;3.77;;;;;;;;;;5035702;28;20191;-68
2022/05/11 14:16:10;;;;;;;4.33;3.63;;;;;;;;;;5016111;28;20201;-68
2022/05/11 14:18:56;;;;;;;6.83;4.00;;;;;;;;;;5016891;28;21566;-68
2022/05/11 14:21:23;;;;;;;8.40;3.97;;;;;;;;;;5034808;28;20780;-68
2022/05/11 14:23:51;;;;;;;5.20;3.50;;;;;;;;;;5012564;28;20899;-65
2022/05/11 14:26:18;;;;;;;4.53;3.63;;;;;;;;;;5029972;28;20734;-68
2022/05/11 14:28:45;;;;;;;5.73;3.80;;;;;;;;;;5029754;28;20191;-68
2022/05/11 14:31:16;;;;;;;4.47;3.77;;;;;;;;;;5036269;28;20924;-68
2022/05/11 14:33:43;;;;;;;5.90;3.70;;;;;;;;;;5036570;28;20688;-68
2022/05/11 14:36:10;;;;;;;5.80;3.50;;;;;;;;;;5028224;28;20274;-67
2022/05/11 14:38:37;;;;;;;7.13;4.07;;;;;;;;;;5011982;28;20227;-67
2022/05/11 14:41:04;;;;;;;5.60;3.73;;;;;;;;;;5030466;28;20206;-68
2022/05/11 14:43:31;;;;;;;6.47;4.00;;;;;;;;;;5018371;28;20215;-68
2022/05/11 14:46:00;;;;;;;15.40;4.83;;;;;;;;;;5040791;28;20996;-67
2022/05/11 14:48:28;;;;;;;9.60;3.70;;;;;;;;;;5039509;28;20183;-69
2022/05/11 14:50:55;;;;;;;15.83;4.50;;;;;;;;;;5038407;28;20202;-68
2022/05/11 14:53:22;;;;;;;6.63;3.80;;;;;;;;;;5011913;28;20766;-68
2022/05/11 14:55:49;;;;;;;37.03;7.73;;;;;;;;;;5016624;28;20192;-70
2022/05/11 15:03:47;;;;;;;15.83;5.10;;;;;;;;;;5014067;28;20531;-67
2022/05/11 15:06:15;;;;;;;20.43;5.23;;;;;;;;;;5017860;28;20322;-67
2022/05/11 15:08:42;;;;;;;11.77;4.20;;;;;;;;;;4999539;28;20257;-68
2022/05/11 15:13:57;;;;;;;14.67;5.40;;;;;;;;;;5029617;28;20287;-68
2022/05/11 15:16:25;;;;;;;21.20;5.20;;;;;;;;;;5030540;28;20183;-68
2022/05/11 15:18:52;;;;;;;11.07;4.50;;;;;;;;;;5018761;28;20293;-68
2022/05/11 15:21:19;;;;;;;9.43;4.70;;;;;;;;;;5020280;28;20858;-69
2022/05/11 15:23:46;;;;;;;15.87;5.20;;;;;;;;;;5031048;28;20206;-68
2022/05/11 15:26:15;;;;;;;8.77;4.33;;;;;;;;;;5029262;28;20590;-68
2022/05/11 15:28:42;;;;;;;29.67;6.40;;;;;;;;;;5026006;28;20227;-68
2022/05/11 15:31:26;;;;;;;9.00;4.97;;;;;;;;;;4999334;28;20183;-69
2022/05/11 15:33:53;;;;;;;8.97;4.90;;;;;;;;;;5039385;28;20207;-68
2022/05/11 15:36:21;;;;;;;6.70;4.70;;;;;;;;;;5034815;28;20191;-67
2022/05/11 15:38:48;;;;;;;7.80;4.73;;;;;;;;;;5031706;28;20231;-69
2022/05/11 15:41:15;;;;;;;7.47;4.13;;;;;;;;;;5037484;28;20190;-68
2022/05/11 15:43:42;;;;;;;5.33;4.20;;;;;;;;;;5015664;28;20278;-69
2022/05/11 15:46:09;;;;;;;5.03;4.10;;;;;;;;;;5015284;28;20246;-69
2022/05/11 15:48:38;;;;;;;4.47;3.83;;;;;;;;;;5021300;28;20196;-68
2022/05/11 15:51:12;;;;;;;8.07;4.70;;;;;;;;;;5018590;28;20192;-69
2022/05/11 15:53:39;;;;;;;8.23;4.73;;;;;;;;;;5026264;28;20202;-68